sensor_id;sensor_type;location;lat;lon;timestamp;P1;durP1;ratioP1;P2;durP2;ratioP2
4430;SDS011;2228;48.140;11.488;2023-09-30T00:00:48;32.17;;;11.80;;
4430;SDS011;2228;48.140;11.488;2023-09-30T00:03:16;27.65;;;12.25;;
4430;SDS011;2228;48.140;11.488;2023-09-30T00:05:43;35.67;;;13.15;;
4430;SDS011;2228;48.140;11.488;2023-09-30T00:08:11;30.85;;;12.35;;
4430;SDS011;2228;48.140;11.488;2023-09-30T00:10:42;31.60;;;13.23;;
4430;SDS011;2228;48.140;11.488;2023-09-30T00:13:13;29.95;;;11.38;;
4430;SDS011;2228;48.140;11.488;2023-09-30T00:15:41;29.20;;;11.10;;
4430;SDS011;2228;48.140;11.488;2023-09-30T00:18:08;35.92;;;13.02;;
4430;SDS011;2228;48.140;11.488;2023-09-30T00:20:36;35.80;;;13.17;;
4430;SDS011;2228;48.140;11.488;2023-09-30T00:23:03;32.67;;;12.93;;
4430;SDS011;2228;48.140;11.488;2023-09-30T00:25:31;28.70;;;12.38;;
4430;SDS011;2228;48.140;11.488;2023-09-30T00:28:00;31.40;;;12.50;;
4430;SDS011;2228;48.140;11.488;2023-09-30T00:30:27;32.42;;;12.40;;
4430;SDS011;2228;48.140;11.488;2023-09-30T00:32:55;30.70;;;12.30;;
4430;SDS011;2228;48.140;11.488;2023-09-30T00:35:22;32.33;;;13.10;;
4430;SDS011;2228;48.140;11.488;2023-09-30T00:37:49;34.13;;;13.30;;
4430;SDS011;2228;48.140;11.488;2023-09-30T00:40:17;32.55;;;12.95;;
4430;SDS011;2228;48.140;11.488;2023-09-30T00:42:44;30.88;;;12.70;;
4430;SDS011;2228;48.140;11.488;2023-09-30T00:45:13;39.20;;;14.40;;
4430;SDS011;2228;48.140;11.488;2023-09-30T00:47:40;29.45;;;13.32;;
4430;SDS011;2228;48.140;11.488;2023-09-30T00:50:07;32.92;;;12.70;;
4430;SDS011;2228;48.140;11.488;2023-09-30T00:52:38;32.08;;;12.98;;
4430;SDS011;2228;48.140;11.488;2023-09-30T00:55:05;34.30;;;13.80;;
4430;SDS011;2228;48.140;11.488;2023-09-30T00:57:35;32.35;;;12.30;;
4430;SDS011;2228;48.140;11.488;2023-09-30T01:00:04;37.53;;;14.50;;
4430;SDS011;2228;48.140;11.488;2023-09-30T01:02:38;37.97;;;13.23;;
4430;SDS011;2228;48.140;11.488;2023-09-30T01:05:06;34.22;;;13.30;;
4430;SDS011;2228;48.140;11.488;2023-09-30T01:07:33;31.30;;;13.57;;
4430;SDS011;2228;48.140;11.488;2023-09-30T01:10:01;39.43;;;13.90;;
4430;SDS011;2228;48.140;11.488;2023-09-30T01:12:28;34.28;;;13.88;;
4430;SDS011;2228;48.140;11.488;2023-09-30T01:14:57;35.33;;;14.90;;
4430;SDS011;2228;48.140;11.488;2023-09-30T01:17:26;32.35;;;13.65;;
4430;SDS011;2228;48.140;11.488;2023-09-30T01:19:56;35.38;;;13.48;;
4430;SDS011;2228;48.140;11.488;2023-09-30T01:22:26;33.57;;;13.80;;
4430;SDS011;2228;48.140;11.488;2023-09-30T01:24:55;34.47;;;14.23;;
4430;SDS011;2228;48.140;11.488;2023-09-30T01:27:23;36.47;;;13.73;;
4430;SDS011;2228;48.140;11.488;2023-09-30T01:29:55;33.13;;;13.40;;
4430;SDS011;2228;48.140;11.488;2023-09-30T01:32:24;34.72;;;14.23;;
4430;SDS011;2228;48.140;11.488;2023-09-30T01:34:51;40.45;;;13.75;;
4430;SDS011;2228;48.140;11.488;2023-09-30T01:37:19;30.48;;;13.85;;
4430;SDS011;2228;48.140;11.488;2023-09-30T01:39:49;35.83;;;14.95;;
4430;SDS011;2228;48.140;11.488;2023-09-30T01:42:20;38.00;;;14.95;;
4430;SDS011;2228;48.140;11.488;2023-09-30T01:44:48;37.67;;;14.40;;
4430;SDS011;2228;48.140;11.488;2023-09-30T01:47:15;32.30;;;13.90;;
4430;SDS011;2228;48.140;11.488;2023-09-30T01:49:42;31.85;;;13.13;;
4430;SDS011;2228;48.140;11.488;2023-09-30T01:52:09;30.80;;;13.93;;
4430;SDS011;2228;48.140;11.488;2023-09-30T01:54:36;37.53;;;14.75;;
4430;SDS011;2228;48.140;11.488;2023-09-30T01:57:05;35.20;;;13.80;;
4430;SDS011;2228;48.140;11.488;2023-09-30T01:59:33;35.10;;;14.60;;
4430;SDS011;2228;48.140;11.488;2023-09-30T02:02:00;38.83;;;14.45;;
4430;SDS011;2228;48.140;11.488;2023-09-30T02:04:27;38.42;;;14.77;;
4430;SDS011;2228;48.140;11.488;2023-09-30T02:06:56;37.05;;;14.68;;
4430;SDS011;2228;48.140;11.488;2023-09-30T02:09:23;35.83;;;14.70;;
4430;SDS011;2228;48.140;11.488;2023-09-30T02:11:50;34.45;;;14.48;;
4430;SDS011;2228;48.140;11.488;2023-09-30T02:14:20;37.25;;;14.05;;
4430;SDS011;2228;48.140;11.488;2023-09-30T02:16:49;34.75;;;14.20;;
4430;SDS011;2228;48.140;11.488;2023-09-30T02:19:18;35.72;;;14.30;;
4430;SDS011;2228;48.140;11.488;2023-09-30T02:21:46;35.17;;;13.38;;
4430;SDS011;2228;48.140;11.488;2023-09-30T02:24:14;32.80;;;13.35;;
4430;SDS011;2228;48.140;11.488;2023-09-30T02:26:41;32.92;;;14.02;;
4430;SDS011;2228;48.140;11.488;2023-09-30T02:29:08;39.42;;;15.27;;
4430;SDS011;2228;48.140;11.488;2023-09-30T02:31:37;36.93;;;15.30;;
4430;SDS011;2228;48.140;11.488;2023-09-30T02:34:04;36.33;;;13.75;;
4430;SDS011;2228;48.140;11.488;2023-09-30T02:36:32;36.10;;;14.40;;
4430;SDS011;2228;48.140;11.488;2023-09-30T02:39:01;36.00;;;14.63;;
4430;SDS011;2228;48.140;11.488;2023-09-30T02:41:28;34.53;;;13.98;;
4430;SDS011;2228;48.140;11.488;2023-09-30T02:43:55;33.60;;;13.57;;
4430;SDS011;2228;48.140;11.488;2023-09-30T02:46:22;30.48;;;12.65;;
4430;SDS011;2228;48.140;11.488;2023-09-30T02:48:53;33.95;;;13.88;;
4430;SDS011;2228;48.140;11.488;2023-09-30T02:51:20;31.92;;;12.85;;
4430;SDS011;2228;48.140;11.488;2023-09-30T02:53:47;33.60;;;13.13;;
4430;SDS011;2228;48.140;11.488;2023-09-30T02:56:14;36.60;;;13.73;;
4430;SDS011;2228;48.140;11.488;2023-09-30T02:58:45;33.17;;;13.73;;
4430;SDS011;2228;48.140;11.488;2023-09-30T03:01:13;32.40;;;12.82;;
4430;SDS011;2228;48.140;11.488;2023-09-30T03:03:43;32.25;;;12.95;;
4430;SDS011;2228;48.140;11.488;2023-09-30T03:06:11;34.60;;;13.30;;
4430;SDS011;2228;48.140;11.488;2023-09-30T03:08:39;34.70;;;13.60;;
4430;SDS011;2228;48.140;11.488;2023-09-30T03:11:07;33.03;;;12.30;;
4430;SDS011;2228;48.140;11.488;2023-09-30T03:13:36;32.55;;;13.95;;
4430;SDS011;2228;48.140;11.488;2023-09-30T03:16:05;32.93;;;12.50;;
4430;SDS011;2228;48.140;11.488;2023-09-30T03:18:32;34.80;;;13.60;;
4430;SDS011;2228;48.140;11.488;2023-09-30T03:21:00;29.20;;;12.95;;
4430;SDS011;2228;48.140;11.488;2023-09-30T03:23:35;30.45;;;12.20;;
4430;SDS011;2228;48.140;11.488;2023-09-30T03:26:03;29.63;;;12.50;;
4430;SDS011;2228;48.140;11.488;2023-09-30T03:28:35;30.00;;;12.57;;
4430;SDS011;2228;48.140;11.488;2023-09-30T03:31:02;33.43;;;13.23;;
4430;SDS011;2228;48.140;11.488;2023-09-30T03:33:30;32.38;;;12.52;;
4430;SDS011;2228;48.140;11.488;2023-09-30T03:35:59;27.75;;;11.90;;
4430;SDS011;2228;48.140;11.488;2023-09-30T03:38:28;31.95;;;11.38;;
4430;SDS011;2228;48.140;11.488;2023-09-30T03:40:58;32.40;;;13.33;;
4430;SDS011;2228;48.140;11.488;2023-09-30T03:43:33;35.72;;;13.68;;
4430;SDS011;2228;48.140;11.488;2023-09-30T03:46:06;32.00;;;12.77;;
4430;SDS011;2228;48.140;11.488;2023-09-30T03:48:33;31.20;;;12.85;;
4430;SDS011;2228;48.140;11.488;2023-09-30T03:51:08;32.83;;;12.60;;
4430;SDS011;2228;48.140;11.488;2023-09-30T03:53:39;31.70;;;12.07;;
4430;SDS011;2228;48.140;11.488;2023-09-30T03:56:09;33.55;;;12.93;;
4430;SDS011;2228;48.140;11.488;2023-09-30T03:58:38;26.50;;;11.27;;
4430;SDS011;2228;48.140;11.488;2023-09-30T04:01:07;27.85;;;12.02;;
4430;SDS011;2228;48.140;11.488;2023-09-30T04:03:36;34.33;;;12.55;;
4430;SDS011;2228;48.140;11.488;2023-09-30T04:06:04;29.17;;;11.80;;
4430;SDS011;2228;48.140;11.488;2023-09-30T04:08:32;35.35;;;13.05;;
4430;SDS011;2228;48.140;11.488;2023-09-30T04:11:02;29.38;;;12.02;;
4430;SDS011;2228;48.140;11.488;2023-09-30T04:13:30;30.73;;;12.00;;
4430;SDS011;2228;48.140;11.488;2023-09-30T04:15:58;29.05;;;11.35;;
4430;SDS011;2228;48.140;11.488;2023-09-30T04:18:28;30.02;;;11.77;;
4430;SDS011;2228;48.140;11.488;2023-09-30T04:20:55;32.30;;;12.60;;
4430;SDS011;2228;48.140;11.488;2023-09-30T04:23:22;29.30;;;11.32;;
4430;SDS011;2228;48.140;11.488;2023-09-30T04:25:50;27.48;;;11.27;;
4430;SDS011;2228;48.140;11.488;2023-09-30T04:28:17;26.00;;;11.05;;
4430;SDS011;2228;48.140;11.488;2023-09-30T04:30:48;28.67;;;11.25;;
4430;SDS011;2228;48.140;11.488;2023-09-30T04:33:17;30.90;;;11.57;;
4430;SDS011;2228;48.140;11.488;2023-09-30T04:35:47;28.45;;;11.02;;
4430;SDS011;2228;48.140;11.488;2023-09-30T04:38:14;28.95;;;10.35;;
4430;SDS011;2228;48.140;11.488;2023-09-30T04:40:41;27.75;;;10.40;;
4430;SDS011;2228;48.140;11.488;2023-09-30T04:43:10;28.38;;;10.77;;
4430;SDS011;2228;48.140;11.488;2023-09-30T04:45:39;28.48;;;10.77;;
4430;SDS011;2228;48.140;11.488;2023-09-30T04:48:08;30.50;;;11.63;;
4430;SDS011;2228;48.140;11.488;2023-09-30T04:50:35;28.45;;;10.00;;
4430;SDS011;2228;48.140;11.488;2023-09-30T04:53:03;31.10;;;10.98;;
4430;SDS011;2228;48.140;11.488;2023-09-30T04:55:30;27.40;;;11.00;;
4430;SDS011;2228;48.140;11.488;2023-09-30T04:57:57;28.20;;;11.40;;
4430;SDS011;2228;48.140;11.488;2023-09-30T05:00:24;27.03;;;11.33;;
4430;SDS011;2228;48.140;11.488;2023-09-30T05:02:54;28.27;;;10.82;;
4430;SDS011;2228;48.140;11.488;2023-09-30T05:05:26;31.55;;;10.32;;
4430;SDS011;2228;48.140;11.488;2023-09-30T05:07:53;23.92;;;10.15;;
4430;SDS011;2228;48.140;11.488;2023-09-30T05:10:23;29.40;;;10.90;;
4430;SDS011;2228;48.140;11.488;2023-09-30T05:12:52;24.02;;;9.90;;
4430;SDS011;2228;48.140;11.488;2023-09-30T05:15:20;30.38;;;11.52;;
4430;SDS011;2228;48.140;11.488;2023-09-30T05:17:48;23.67;;;9.65;;
4430;SDS011;2228;48.140;11.488;2023-09-30T05:20:15;27.58;;;10.30;;
4430;SDS011;2228;48.140;11.488;2023-09-30T05:22:46;28.17;;;11.25;;
4430;SDS011;2228;48.140;11.488;2023-09-30T05:25:15;33.97;;;11.07;;
4430;SDS011;2228;48.140;11.488;2023-09-30T05:27:43;30.38;;;11.10;;
4430;SDS011;2228;48.140;11.488;2023-09-30T05:30:12;29.92;;;11.30;;
4430;SDS011;2228;48.140;11.488;2023-09-30T05:32:41;24.38;;;9.93;;
4430;SDS011;2228;48.140;11.488;2023-09-30T05:35:11;27.13;;;10.52;;
4430;SDS011;2228;48.140;11.488;2023-09-30T05:37:39;23.60;;;9.88;;
4430;SDS011;2228;48.140;11.488;2023-09-30T05:40:10;25.65;;;10.45;;
4430;SDS011;2228;48.140;11.488;2023-09-30T05:42:45;27.77;;;10.50;;
4430;SDS011;2228;48.140;11.488;2023-09-30T05:45:26;32.20;;;11.20;;
4430;SDS011;2228;48.140;11.488;2023-09-30T05:48:01;37.72;;;11.02;;
4430;SDS011;2228;48.140;11.488;2023-09-30T05:50:37;30.40;;;11.70;;
4430;SDS011;2228;48.140;11.488;2023-09-30T05:53:05;34.63;;;11.00;;
4430;SDS011;2228;48.140;11.488;2023-09-30T05:55:45;28.45;;;10.02;;
4430;SDS011;2228;48.140;11.488;2023-09-30T06:03:40;27.20;;;10.00;;
4430;SDS011;2228;48.140;11.488;2023-09-30T06:06:10;26.50;;;11.23;;
4430;SDS011;2228;48.140;11.488;2023-09-30T06:08:41;27.15;;;10.75;;
4430;SDS011;2228;48.140;11.488;2023-09-30T06:11:18;28.85;;;10.50;;
4430;SDS011;2228;48.140;11.488;2023-09-30T06:13:49;25.15;;;9.95;;
4430;SDS011;2228;48.140;11.488;2023-09-30T06:16:19;21.95;;;9.18;;
4430;SDS011;2228;48.140;11.488;2023-09-30T06:18:47;23.35;;;8.80;;
4430;SDS011;2228;48.140;11.488;2023-09-30T06:40:17;25.25;;;9.63;;
4430;SDS011;2228;48.140;11.488;2023-09-30T06:42:44;22.42;;;8.85;;
4430;SDS011;2228;48.140;11.488;2023-09-30T06:45:11;22.83;;;8.60;;
4430;SDS011;2228;48.140;11.488;2023-09-30T06:47:39;20.55;;;8.27;;
4430;SDS011;2228;48.140;11.488;2023-09-30T06:50:08;22.60;;;8.30;;
4430;SDS011;2228;48.140;11.488;2023-09-30T06:52:38;19.77;;;7.90;;
4430;SDS011;2228;48.140;11.488;2023-09-30T06:55:07;21.98;;;8.50;;
4430;SDS011;2228;48.140;11.488;2023-09-30T06:57:37;22.83;;;8.60;;
4430;SDS011;2228;48.140;11.488;2023-09-30T07:00:06;20.02;;;8.00;;
4430;SDS011;2228;48.140;11.488;2023-09-30T07:02:34;21.80;;;8.18;;
4430;SDS011;2228;48.140;11.488;2023-09-30T07:05:02;18.87;;;8.27;;
4430;SDS011;2228;48.140;11.488;2023-09-30T07:07:31;19.95;;;7.70;;
4430;SDS011;2228;48.140;11.488;2023-09-30T07:09:58;16.13;;;7.30;;
4430;SDS011;2228;48.140;11.488;2023-09-30T07:12:26;19.67;;;7.53;;
4430;SDS011;2228;48.140;11.488;2023-09-30T07:14:55;17.10;;;6.77;;
4430;SDS011;2228;48.140;11.488;2023-09-30T07:17:22;16.95;;;7.00;;
4430;SDS011;2228;48.140;11.488;2023-09-30T07:19:49;18.70;;;7.78;;
4430;SDS011;2228;48.140;11.488;2023-09-30T07:22:16;17.80;;;6.63;;
4430;SDS011;2228;48.140;11.488;2023-09-30T07:24:43;13.70;;;6.78;;
4430;SDS011;2228;48.140;11.488;2023-09-30T07:27:10;16.77;;;6.97;;
4430;SDS011;2228;48.140;11.488;2023-09-30T07:29:37;15.05;;;6.38;;
4430;SDS011;2228;48.140;11.488;2023-09-30T07:32:06;12.10;;;5.90;;
4430;SDS011;2228;48.140;11.488;2023-09-30T07:34:35;13.52;;;6.00;;
4430;SDS011;2228;48.140;11.488;2023-09-30T07:37:02;16.30;;;6.25;;
4430;SDS011;2228;48.140;11.488;2023-09-30T07:39:29;16.15;;;6.25;;
4430;SDS011;2228;48.140;11.488;2023-09-30T07:41:56;19.30;;;7.22;;
4430;SDS011;2228;48.140;11.488;2023-09-30T07:44:23;12.10;;;5.78;;
4430;SDS011;2228;48.140;11.488;2023-09-30T07:46:50;15.32;;;6.10;;
4430;SDS011;2228;48.140;11.488;2023-09-30T07:49:18;14.43;;;6.23;;
4430;SDS011;2228;48.140;11.488;2023-09-30T07:51:45;13.18;;;5.85;;
4430;SDS011;2228;48.140;11.488;2023-09-30T07:54:12;15.20;;;6.20;;
4430;SDS011;2228;48.140;11.488;2023-09-30T07:56:39;14.90;;;5.60;;
4430;SDS011;2228;48.140;11.488;2023-09-30T07:59:06;15.60;;;6.30;;
4430;SDS011;2228;48.140;11.488;2023-09-30T08:01:35;13.60;;;5.95;;
4430;SDS011;2228;48.140;11.488;2023-09-30T08:04:02;16.42;;;7.40;;
4430;SDS011;2228;48.140;11.488;2023-09-30T08:06:31;17.55;;;7.07;;
4430;SDS011;2228;48.140;11.488;2023-09-30T08:08:58;14.02;;;6.03;;
4430;SDS011;2228;48.140;11.488;2023-09-30T08:11:25;15.82;;;6.30;;
4430;SDS011;2228;48.140;11.488;2023-09-30T08:13:52;17.50;;;6.43;;
4430;SDS011;2228;48.140;11.488;2023-09-30T08:16:19;14.27;;;6.18;;
4430;SDS011;2228;48.140;11.488;2023-09-30T08:18:47;14.75;;;6.03;;
4430;SDS011;2228;48.140;11.488;2023-09-30T08:21:14;16.17;;;6.47;;
4430;SDS011;2228;48.140;11.488;2023-09-30T08:23:42;14.55;;;5.88;;
4430;SDS011;2228;48.140;11.488;2023-09-30T08:26:09;18.43;;;6.40;;
4430;SDS011;2228;48.140;11.488;2023-09-30T08:28:36;15.27;;;6.10;;
4430;SDS011;2228;48.140;11.488;2023-09-30T08:31:03;15.10;;;6.22;;
4430;SDS011;2228;48.140;11.488;2023-09-30T08:33:31;15.00;;;6.53;;
4430;SDS011;2228;48.140;11.488;2023-09-30T08:36:01;15.88;;;6.07;;
4430;SDS011;2228;48.140;11.488;2023-09-30T08:38:32;12.73;;;5.60;;
4430;SDS011;2228;48.140;11.488;2023-09-30T08:41:02;16.20;;;6.10;;
4430;SDS011;2228;48.140;11.488;2023-09-30T08:43:29;12.70;;;5.32;;
4430;SDS011;2228;48.140;11.488;2023-09-30T08:45:57;17.40;;;6.80;;
4430;SDS011;2228;48.140;11.488;2023-09-30T08:48:26;15.07;;;6.60;;
4430;SDS011;2228;48.140;11.488;2023-09-30T08:50:53;14.93;;;6.27;;
4430;SDS011;2228;48.140;11.488;2023-09-30T08:53:21;16.35;;;6.20;;
4430;SDS011;2228;48.140;11.488;2023-09-30T08:55:49;14.52;;;6.18;;
4430;SDS011;2228;48.140;11.488;2023-09-30T08:58:20;13.18;;;6.25;;
4430;SDS011;2228;48.140;11.488;2023-09-30T09:00:50;14.48;;;6.45;;
4430;SDS011;2228;48.140;11.488;2023-09-30T09:03:18;15.88;;;6.45;;
4430;SDS011;2228;48.140;11.488;2023-09-30T09:05:45;14.60;;;5.90;;
4430;SDS011;2228;48.140;11.488;2023-09-30T09:08:13;14.70;;;6.40;;
4430;SDS011;2228;48.140;11.488;2023-09-30T09:10:47;19.98;;;6.75;;
4430;SDS011;2228;48.140;11.488;2023-09-30T09:13:22;14.95;;;6.40;;
4430;SDS011;2228;48.140;11.488;2023-09-30T09:15:50;13.52;;;5.78;;
4430;SDS011;2228;48.140;11.488;2023-09-30T09:18:32;14.52;;;6.80;;
4430;SDS011;2228;48.140;11.488;2023-09-30T09:21:10;17.15;;;6.28;;
4430;SDS011;2228;48.140;11.488;2023-09-30T09:23:38;15.07;;;6.07;;
4430;SDS011;2228;48.140;11.488;2023-09-30T09:26:06;14.15;;;6.70;;
4430;SDS011;2228;48.140;11.488;2023-09-30T09:28:37;14.77;;;6.35;;
4430;SDS011;2228;48.140;11.488;2023-09-30T09:31:20;13.85;;;5.63;;
4430;SDS011;2228;48.140;11.488;2023-09-30T09:33:49;18.35;;;6.70;;
4430;SDS011;2228;48.140;11.488;2023-09-30T09:36:17;15.20;;;6.63;;
4430;SDS011;2228;48.140;11.488;2023-09-30T09:38:45;16.83;;;6.07;;
4430;SDS011;2228;48.140;11.488;2023-09-30T09:41:14;14.45;;;6.05;;
4430;SDS011;2228;48.140;11.488;2023-09-30T09:43:43;14.82;;;6.40;;
4430;SDS011;2228;48.140;11.488;2023-09-30T09:46:11;14.70;;;6.00;;
4430;SDS011;2228;48.140;11.488;2023-09-30T09:48:39;13.73;;;6.30;;
4430;SDS011;2228;48.140;11.488;2023-09-30T09:51:06;14.27;;;5.90;;
4430;SDS011;2228;48.140;11.488;2023-09-30T09:53:38;12.55;;;5.63;;
4430;SDS011;2228;48.140;11.488;2023-09-30T09:56:07;14.50;;;6.10;;
4430;SDS011;2228;48.140;11.488;2023-09-30T09:58:38;14.35;;;6.20;;
4430;SDS011;2228;48.140;11.488;2023-09-30T10:01:09;13.57;;;5.80;;
4430;SDS011;2228;48.140;11.488;2023-09-30T10:03:37;12.87;;;5.50;;
4430;SDS011;2228;48.140;11.488;2023-09-30T10:06:04;14.98;;;6.03;;
4430;SDS011;2228;48.140;11.488;2023-09-30T10:08:35;15.07;;;6.28;;
4430;SDS011;2228;48.140;11.488;2023-09-30T10:11:05;12.77;;;5.75;;
4430;SDS011;2228;48.140;11.488;2023-09-30T10:13:51;11.95;;;5.35;;
4430;SDS011;2228;48.140;11.488;2023-09-30T10:19:19;12.07;;;5.63;;
4430;SDS011;2228;48.140;11.488;2023-09-30T10:24:51;13.73;;;5.75;;
4430;SDS011;2228;48.140;11.488;2023-09-30T10:27:29;11.43;;;5.60;;
4430;SDS011;2228;48.140;11.488;2023-09-30T10:30:06;14.48;;;6.20;;
4430;SDS011;2228;48.140;11.488;2023-09-30T10:35:45;16.50;;;6.28;;
4430;SDS011;2228;48.140;11.488;2023-09-30T10:41:06;12.77;;;4.80;;
4430;SDS011;2228;48.140;11.488;2023-09-30T10:43:34;11.70;;;5.82;;
4430;SDS011;2228;48.140;11.488;2023-09-30T10:46:03;10.80;;;5.40;;
4430;SDS011;2228;48.140;11.488;2023-09-30T10:48:37;13.60;;;5.75;;
4430;SDS011;2228;48.140;11.488;2023-09-30T10:51:15;12.05;;;4.90;;
4430;SDS011;2228;48.140;11.488;2023-09-30T10:53:47;15.40;;;6.15;;
4430;SDS011;2228;48.140;11.488;2023-09-30T10:56:16;13.60;;;5.97;;
4430;SDS011;2228;48.140;11.488;2023-09-30T10:58:44;12.98;;;5.20;;
4430;SDS011;2228;48.140;11.488;2023-09-30T11:01:12;12.95;;;4.85;;
4430;SDS011;2228;48.140;11.488;2023-09-30T11:03:42;12.00;;;4.35;;
4430;SDS011;2228;48.140;11.488;2023-09-30T11:06:11;12.77;;;5.00;;
4430;SDS011;2228;48.140;11.488;2023-09-30T11:08:45;12.35;;;4.80;;
4430;SDS011;2228;48.140;11.488;2023-09-30T11:11:13;8.82;;;4.80;;
4430;SDS011;2228;48.140;11.488;2023-09-30T11:13:40;9.40;;;4.75;;
4430;SDS011;2228;48.140;11.488;2023-09-30T11:16:07;10.80;;;5.25;;
4430;SDS011;2228;48.140;11.488;2023-09-30T11:18:34;11.98;;;5.53;;
4430;SDS011;2228;48.140;11.488;2023-09-30T11:21:05;11.17;;;4.70;;
4430;SDS011;2228;48.140;11.488;2023-09-30T11:23:33;10.25;;;5.00;;
4430;SDS011;2228;48.140;11.488;2023-09-30T11:26:03;13.80;;;6.38;;
4430;SDS011;2228;48.140;11.488;2023-09-30T11:28:37;14.40;;;6.63;;
4430;SDS011;2228;48.140;11.488;2023-09-30T11:31:07;11.85;;;6.20;;
4430;SDS011;2228;48.140;11.488;2023-09-30T11:33:49;15.75;;;6.57;;
4430;SDS011;2228;48.140;11.488;2023-09-30T11:36:19;11.15;;;5.63;;
4430;SDS011;2228;48.140;11.488;2023-09-30T11:38:48;12.87;;;5.30;;
4430;SDS011;2228;48.140;11.488;2023-09-30T11:41:15;13.15;;;5.65;;
4430;SDS011;2228;48.140;11.488;2023-09-30T11:44:00;13.75;;;5.40;;
4430;SDS011;2228;48.140;11.488;2023-09-30T11:46:29;13.75;;;6.05;;
4430;SDS011;2228;48.140;11.488;2023-09-30T11:48:59;13.90;;;6.00;;
4430;SDS011;2228;48.140;11.488;2023-09-30T11:51:28;13.40;;;5.57;;
4430;SDS011;2228;48.140;11.488;2023-09-30T11:53:56;10.25;;;5.43;;
4430;SDS011;2228;48.140;11.488;2023-09-30T11:56:24;12.25;;;5.18;;
4430;SDS011;2228;48.140;11.488;2023-09-30T11:58:55;13.40;;;5.80;;
4430;SDS011;2228;48.140;11.488;2023-09-30T12:01:24;14.87;;;6.10;;
4430;SDS011;2228;48.140;11.488;2023-09-30T12:03:51;14.50;;;6.38;;
4430;SDS011;2228;48.140;11.488;2023-09-30T12:06:21;13.45;;;7.30;;
4430;SDS011;2228;48.140;11.488;2023-09-30T12:08:49;23.75;;;10.20;;
4430;SDS011;2228;48.140;11.488;2023-09-30T12:11:17;18.92;;;7.72;;
4430;SDS011;2228;48.140;11.488;2023-09-30T12:13:44;17.67;;;7.80;;
4430;SDS011;2228;48.140;11.488;2023-09-30T12:16:14;16.77;;;7.88;;
4430;SDS011;2228;48.140;11.488;2023-09-30T12:18:41;15.57;;;7.43;;
4430;SDS011;2228;48.140;11.488;2023-09-30T12:21:09;16.33;;;7.50;;
4430;SDS011;2228;48.140;11.488;2023-09-30T12:23:36;18.00;;;8.82;;
4430;SDS011;2228;48.140;11.488;2023-09-30T12:26:05;19.60;;;9.80;;
4430;SDS011;2228;48.140;11.488;2023-09-30T12:28:33;17.70;;;9.00;;
4430;SDS011;2228;48.140;11.488;2023-09-30T12:31:00;15.00;;;7.47;;
4430;SDS011;2228;48.140;11.488;2023-09-30T12:33:29;14.50;;;7.63;;
4430;SDS011;2228;48.140;11.488;2023-09-30T12:35:57;16.95;;;7.43;;
4430;SDS011;2228;48.140;11.488;2023-09-30T12:38:25;13.67;;;6.57;;
4430;SDS011;2228;48.140;11.488;2023-09-30T12:40:53;16.45;;;7.70;;
4430;SDS011;2228;48.140;11.488;2023-09-30T12:43:22;22.23;;;9.48;;
4430;SDS011;2228;48.140;11.488;2023-09-30T12:45:49;22.55;;;8.95;;
4430;SDS011;2228;48.140;11.488;2023-09-30T12:48:16;19.75;;;9.00;;
4430;SDS011;2228;48.140;11.488;2023-09-30T12:50:43;21.92;;;8.48;;
4430;SDS011;2228;48.140;11.488;2023-09-30T12:55:56;18.38;;;8.40;;
4430;SDS011;2228;48.140;11.488;2023-09-30T12:58:26;20.95;;;8.32;;
4430;SDS011;2228;48.140;11.488;2023-09-30T13:00:53;20.03;;;8.73;;
4430;SDS011;2228;48.140;11.488;2023-09-30T13:03:21;18.17;;;7.97;;
4430;SDS011;2228;48.140;11.488;2023-09-30T13:05:48;22.17;;;8.40;;
4430;SDS011;2228;48.140;11.488;2023-09-30T13:08:15;20.35;;;9.00;;
4430;SDS011;2228;48.140;11.488;2023-09-30T13:10:42;20.00;;;7.68;;
4430;SDS011;2228;48.140;11.488;2023-09-30T13:13:10;17.47;;;8.70;;
4430;SDS011;2228;48.140;11.488;2023-09-30T13:15:39;18.15;;;8.05;;
4430;SDS011;2228;48.140;11.488;2023-09-30T13:18:06;17.73;;;8.20;;
4430;SDS011;2228;48.140;11.488;2023-09-30T13:20:33;16.52;;;8.13;;
4430;SDS011;2228;48.140;11.488;2023-09-30T13:23:01;17.02;;;7.75;;
4430;SDS011;2228;48.140;11.488;2023-09-30T13:25:29;19.30;;;8.15;;
4430;SDS011;2228;48.140;11.488;2023-09-30T13:27:56;15.43;;;7.30;;
4430;SDS011;2228;48.140;11.488;2023-09-30T13:30:23;14.70;;;7.00;;
4430;SDS011;2228;48.140;11.488;2023-09-30T13:32:51;15.38;;;6.80;;
4430;SDS011;2228;48.140;11.488;2023-09-30T13:35:18;15.73;;;7.00;;
4430;SDS011;2228;48.140;11.488;2023-09-30T13:37:45;16.20;;;7.47;;
4430;SDS011;2228;48.140;11.488;2023-09-30T13:40:12;17.65;;;7.97;;
4430;SDS011;2228;48.140;11.488;2023-09-30T13:42:39;15.05;;;6.63;;
4430;SDS011;2228;48.140;11.488;2023-09-30T13:45:07;16.50;;;7.60;;
4430;SDS011;2228;48.140;11.488;2023-09-30T13:47:35;17.45;;;7.05;;
4430;SDS011;2228;48.140;11.488;2023-09-30T13:50:04;17.50;;;7.40;;
4430;SDS011;2228;48.140;11.488;2023-09-30T13:52:33;16.63;;;8.10;;
4430;SDS011;2228;48.140;11.488;2023-09-30T13:55:00;17.30;;;7.90;;
4430;SDS011;2228;48.140;11.488;2023-09-30T13:57:27;20.20;;;7.30;;
4430;SDS011;2228;48.140;11.488;2023-09-30T13:59:54;18.27;;;7.30;;
4430;SDS011;2228;48.140;11.488;2023-09-30T14:02:21;16.45;;;7.55;;
4430;SDS011;2228;48.140;11.488;2023-09-30T14:04:49;14.70;;;6.50;;
4430;SDS011;2228;48.140;11.488;2023-09-30T14:07:17;18.27;;;7.45;;
4430;SDS011;2228;48.140;11.488;2023-09-30T14:09:44;17.23;;;8.02;;
4430;SDS011;2228;48.140;11.488;2023-09-30T14:12:11;16.10;;;7.25;;
4430;SDS011;2228;48.140;11.488;2023-09-30T14:14:38;13.35;;;6.03;;
4430;SDS011;2228;48.140;11.488;2023-09-30T14:17:05;17.77;;;7.50;;
4430;SDS011;2228;48.140;11.488;2023-09-30T14:19:35;16.87;;;7.60;;
4430;SDS011;2228;48.140;11.488;2023-09-30T14:22:04;17.98;;;7.13;;
4430;SDS011;2228;48.140;11.488;2023-09-30T14:24:32;14.23;;;7.53;;
4430;SDS011;2228;48.140;11.488;2023-09-30T14:26:59;16.88;;;7.13;;
4430;SDS011;2228;48.140;11.488;2023-09-30T14:29:26;18.23;;;7.80;;
4430;SDS011;2228;48.140;11.488;2023-09-30T14:31:54;13.88;;;7.35;;
4430;SDS011;2228;48.140;11.488;2023-09-30T14:34:21;17.17;;;6.95;;
4430;SDS011;2228;48.140;11.488;2023-09-30T14:36:48;16.83;;;6.60;;
4430;SDS011;2228;48.140;11.488;2023-09-30T14:39:15;16.73;;;6.85;;
4430;SDS011;2228;48.140;11.488;2023-09-30T14:41:44;14.10;;;6.63;;
4430;SDS011;2228;48.140;11.488;2023-09-30T14:44:11;16.25;;;6.55;;
4430;SDS011;2228;48.140;11.488;2023-09-30T14:46:38;16.20;;;7.30;;
4430;SDS011;2228;48.140;11.488;2023-09-30T14:49:06;14.70;;;6.90;;
4430;SDS011;2228;48.140;11.488;2023-09-30T14:51:33;17.75;;;7.20;;
4430;SDS011;2228;48.140;11.488;2023-09-30T14:54:00;15.33;;;7.07;;
4430;SDS011;2228;48.140;11.488;2023-09-30T14:56:27;21.58;;;7.75;;
4430;SDS011;2228;48.140;11.488;2023-09-30T14:58:56;18.40;;;7.57;;
4430;SDS011;2228;48.140;11.488;2023-09-30T15:01:22;16.67;;;6.80;;
4430;SDS011;2228;48.140;11.488;2023-09-30T15:03:51;14.70;;;6.97;;
4430;SDS011;2228;48.140;11.488;2023-09-30T15:06:18;16.95;;;7.60;;
4430;SDS011;2228;48.140;11.488;2023-09-30T15:08:46;14.55;;;6.82;;
4430;SDS011;2228;48.140;11.488;2023-09-30T15:11:13;15.63;;;7.13;;
4430;SDS011;2228;48.140;11.488;2023-09-30T15:13:41;17.47;;;7.70;;
4430;SDS011;2228;48.140;11.488;2023-09-30T15:16:15;16.55;;;7.22;;
4430;SDS011;2228;48.140;11.488;2023-09-30T15:18:43;16.55;;;6.88;;
4430;SDS011;2228;48.140;11.488;2023-09-30T15:21:12;14.98;;;7.38;;
4430;SDS011;2228;48.140;11.488;2023-09-30T15:23:39;14.30;;;7.03;;
4430;SDS011;2228;48.140;11.488;2023-09-30T15:26:06;17.33;;;7.15;;
4430;SDS011;2228;48.140;11.488;2023-09-30T15:28:33;16.30;;;7.40;;
4430;SDS011;2228;48.140;11.488;2023-09-30T15:31:00;15.57;;;7.47;;